Industrial Montana, Puerto Rico
Current Conditions -  °F | °C
As of 8:50 PM on Wednesday 22 Oct 2014 (Local Time) from TJBQ Reporting Station
Broken Clouds Broken Clouds  
Wind Chill: 79°   Ceiling: 7000
Heat Index: 82°   Visibility: 10mi
Dew Point: 75°   Wind: 0mph
Humidity: 89%   Direction: NA
Pressure: 29.95"   Gusts: NA
Location:  18.4409°N, 67.1508°W
Report Text: TJBQ 230050Z 00000KT 10SM SCT033 BKN070 26/24 A2995 RMK TOWER CLOSED TILL 0800
Loading
Personal Weather Stations






























Interactive Weather Map
Tropical Storm Tracking
New forecast layout! Learn more

10-Day Weather Forecast

Advertisements
Track Severe Weather on mobile